sensor_id;sensor_type;location;lat;lon;timestamp;P1;durP1;ratioP1;P2;durP2;ratioP2
26484;SDS011;18083;50.560;7.262;2023-02-03T00:00:07;6.93;;;2.53;;
26484;SDS011;18083;50.560;7.262;2023-02-03T00:02:34;5.47;;;2.50;;
26484;SDS011;18083;50.560;7.262;2023-02-03T00:05:02;6.23;;;3.07;;
26484;SDS011;18083;50.560;7.262;2023-02-03T00:07:29;3.13;;;2.70;;
26484;SDS011;18083;50.560;7.262;2023-02-03T00:09:56;10.93;;;3.90;;
26484;SDS011;18083;50.560;7.262;2023-02-03T00:12:24;4.80;;;3.50;;
26484;SDS011;18083;50.560;7.262;2023-02-03T00:14:51;5.93;;;2.80;;
26484;SDS011;18083;50.560;7.262;2023-02-03T00:17:19;3.93;;;2.50;;
26484;SDS011;18083;50.560;7.262;2023-02-03T00:19:46;3.97;;;2.33;;
26484;SDS011;18083;50.560;7.262;2023-02-03T00:22:13;20.47;;;7.33;;
26484;SDS011;18083;50.560;7.262;2023-02-03T00:24:40;3.60;;;2.40;;
26484;SDS011;18083;50.560;7.262;2023-02-03T00:27:08;8.73;;;2.77;;
26484;SDS011;18083;50.560;7.262;2023-02-03T00:29:35;7.10;;;3.80;;
26484;SDS011;18083;50.560;7.262;2023-02-03T00:32:02;4.33;;;2.30;;
26484;SDS011;18083;50.560;7.262;2023-02-03T00:34:30;4.47;;;2.00;;
26484;SDS011;18083;50.560;7.262;2023-02-03T00:36:57;4.37;;;2.47;;
26484;SDS011;18083;50.560;7.262;2023-02-03T00:39:24;4.90;;;2.63;;
26484;SDS011;18083;50.560;7.262;2023-02-03T00:41:52;9.33;;;3.07;;
26484;SDS011;18083;50.560;7.262;2023-02-03T00:44:19;7.30;;;2.80;;
26484;SDS011;18083;50.560;7.262;2023-02-03T00:46:47;5.83;;;2.93;;
26484;SDS011;18083;50.560;7.262;2023-02-03T00:49:14;6.47;;;2.63;;
26484;SDS011;18083;50.560;7.262;2023-02-03T00:51:41;3.37;;;2.40;;
26484;SDS011;18083;50.560;7.262;2023-02-03T00:54:09;2.70;;;2.43;;
26484;SDS011;18083;50.560;7.262;2023-02-03T00:56:36;6.93;;;3.23;;
26484;SDS011;18083;50.560;7.262;2023-02-03T00:59:03;6.47;;;2.30;;
26484;SDS011;18083;50.560;7.262;2023-02-03T01:01:31;5.47;;;2.30;;
26484;SDS011;18083;50.560;7.262;2023-02-03T01:03:58;7.57;;;2.67;;
26484;SDS011;18083;50.560;7.262;2023-02-03T01:06:26;4.80;;;2.53;;
26484;SDS011;18083;50.560;7.262;2023-02-03T01:08:53;5.73;;;2.10;;
26484;SDS011;18083;50.560;7.262;2023-02-03T01:11:22;3.33;;;2.20;;
26484;SDS011;18083;50.560;7.262;2023-02-03T01:13:50;3.87;;;2.33;;
26484;SDS011;18083;50.560;7.262;2023-02-03T01:16:18;4.53;;;3.00;;
26484;SDS011;18083;50.560;7.262;2023-02-03T01:18:46;4.40;;;2.47;;
26484;SDS011;18083;50.560;7.262;2023-02-03T01:21:18;4.03;;;2.70;;
26484;SDS011;18083;50.560;7.262;2023-02-03T01:23:45;4.67;;;2.20;;
26484;SDS011;18083;50.560;7.262;2023-02-03T01:26:14;4.17;;;2.67;;
26484;SDS011;18083;50.560;7.262;2023-02-03T01:28:42;5.20;;;2.60;;
26484;SDS011;18083;50.560;7.262;2023-02-03T01:33:41;2.63;;;1.90;;
26484;SDS011;18083;50.560;7.262;2023-02-03T01:36:11;5.53;;;1.83;;
26484;SDS011;18083;50.560;7.262;2023-02-03T01:38:38;5.30;;;2.27;;
26484;SDS011;18083;50.560;7.262;2023-02-03T01:41:07;6.17;;;2.10;;
26484;SDS011;18083;50.560;7.262;2023-02-03T01:43:35;3.30;;;2.10;;
26484;SDS011;18083;50.560;7.262;2023-02-03T01:46:17;4.20;;;2.10;;
26484;SDS011;18083;50.560;7.262;2023-02-03T01:48:32;4.20;;;2.03;;
26484;SDS011;18083;50.560;7.262;2023-02-03T01:51:01;5.87;;;1.60;;
26484;SDS011;18083;50.560;7.262;2023-02-03T01:53:28;4.73;;;2.03;;
26484;SDS011;18083;50.560;7.262;2023-02-03T01:55:56;5.00;;;3.40;;
26484;SDS011;18083;50.560;7.262;2023-02-03T01:58:27;4.30;;;2.30;;
26484;SDS011;18083;50.560;7.262;2023-02-03T02:00:55;5.43;;;2.33;;
26484;SDS011;18083;50.560;7.262;2023-02-03T02:03:24;2.90;;;1.73;;
26484;SDS011;18083;50.560;7.262;2023-02-03T02:05:53;3.87;;;1.43;;
26484;SDS011;18083;50.560;7.262;2023-02-03T02:08:21;3.77;;;2.00;;
26484;SDS011;18083;50.560;7.262;2023-02-03T02:10:49;5.00;;;3.13;;
26484;SDS011;18083;50.560;7.262;2023-02-03T02:13:16;5.13;;;1.90;;
26484;SDS011;18083;50.560;7.262;2023-02-03T02:15:50;4.17;;;1.87;;
26484;SDS011;18083;50.560;7.262;2023-02-03T02:18:23;7.03;;;3.33;;
26484;SDS011;18083;50.560;7.262;2023-02-03T02:23:26;4.37;;;2.20;;
26484;SDS011;18083;50.560;7.262;2023-02-03T02:25:55;3.03;;;1.90;;
26484;SDS011;18083;50.560;7.262;2023-02-03T02:39:14;3.03;;;1.77;;
26484;SDS011;18083;50.560;7.262;2023-02-03T02:41:43;4.17;;;1.60;;
26484;SDS011;18083;50.560;7.262;2023-02-03T02:44:12;6.53;;;2.07;;
26484;SDS011;18083;50.560;7.262;2023-02-03T02:46:45;2.40;;;1.60;;
26484;SDS011;18083;50.560;7.262;2023-02-03T02:52:12;3.87;;;1.37;;
26484;SDS011;18083;50.560;7.262;2023-02-03T02:54:40;4.77;;;1.73;;
26484;SDS011;18083;50.560;7.262;2023-02-03T02:57:10;5.00;;;1.20;;
26484;SDS011;18083;50.560;7.262;2023-02-03T02:59:38;2.70;;;1.37;;
26484;SDS011;18083;50.560;7.262;2023-02-03T03:02:05;2.50;;;1.60;;
26484;SDS011;18083;50.560;7.262;2023-02-03T03:04:32;2.27;;;1.33;;
26484;SDS011;18083;50.560;7.262;2023-02-03T03:07:07;4.70;;;1.47;;
26484;SDS011;18083;50.560;7.262;2023-02-03T03:09:31;3.43;;;1.47;;
26484;SDS011;18083;50.560;7.262;2023-02-03T03:12:06;3.73;;;1.50;;
26484;SDS011;18083;50.560;7.262;2023-02-03T03:14:29;3.73;;;2.03;;
26484;SDS011;18083;50.560;7.262;2023-02-03T03:17:02;1.53;;;1.00;;
26484;SDS011;18083;50.560;7.262;2023-02-03T03:19:34;3.93;;;1.13;;
26484;SDS011;18083;50.560;7.262;2023-02-03T03:22:00;3.67;;;1.30;;
26484;SDS011;18083;50.560;7.262;2023-02-03T03:24:28;1.67;;;1.33;;
26484;SDS011;18083;50.560;7.262;2023-02-03T03:27:19;2.80;;;1.50;;
26484;SDS011;18083;50.560;7.262;2023-02-03T03:31:57;2.63;;;1.27;;
26484;SDS011;18083;50.560;7.262;2023-02-03T03:34:24;2.87;;;1.00;;
26484;SDS011;18083;50.560;7.262;2023-02-03T03:39:37;3.83;;;1.10;;
26484;SDS011;18083;50.560;7.262;2023-02-03T03:42:09;1.80;;;1.27;;
26484;SDS011;18083;50.560;7.262;2023-02-03T03:44:38;2.37;;;1.27;;
26484;SDS011;18083;50.560;7.262;2023-02-03T03:47:10;1.20;;;0.93;;
26484;SDS011;18083;50.560;7.262;2023-02-03T03:49:34;1.87;;;1.10;;
26484;SDS011;18083;50.560;7.262;2023-02-03T03:52:03;1.27;;;1.17;;
26484;SDS011;18083;50.560;7.262;2023-02-03T03:54:30;3.13;;;1.03;;
26484;SDS011;18083;50.560;7.262;2023-02-03T03:57:03;1.63;;;1.10;;
26484;SDS011;18083;50.560;7.262;2023-02-03T03:59:30;1.80;;;1.00;;
26484;SDS011;18083;50.560;7.262;2023-02-03T04:01:58;1.97;;;1.00;;
26484;SDS011;18083;50.560;7.262;2023-02-03T04:04:29;6.10;;;1.60;;
26484;SDS011;18083;50.560;7.262;2023-02-03T04:06:58;1.93;;;1.20;;
26484;SDS011;18083;50.560;7.262;2023-02-03T04:09:25;1.83;;;1.00;;
26484;SDS011;18083;50.560;7.262;2023-02-03T04:11:53;3.17;;;1.63;;
26484;SDS011;18083;50.560;7.262;2023-02-03T04:14:32;3.67;;;1.40;;
26484;SDS011;18083;50.560;7.262;2023-02-03T04:17:00;4.73;;;1.30;;
26484;SDS011;18083;50.560;7.262;2023-02-03T04:19:27;2.10;;;1.10;;
26484;SDS011;18083;50.560;7.262;2023-02-03T04:21:55;2.00;;;1.13;;
26484;SDS011;18083;50.560;7.262;2023-02-03T04:24:22;1.93;;;1.13;;
26484;SDS011;18083;50.560;7.262;2023-02-03T04:26:50;3.00;;;1.43;;
26484;SDS011;18083;50.560;7.262;2023-02-03T04:29:17;6.73;;;1.70;;
26484;SDS011;18083;50.560;7.262;2023-02-03T04:31:44;2.67;;;1.23;;
26484;SDS011;18083;50.560;7.262;2023-02-03T04:34:12;1.77;;;1.27;;
26484;SDS011;18083;50.560;7.262;2023-02-03T04:36:39;1.67;;;1.20;;
26484;SDS011;18083;50.560;7.262;2023-02-03T04:39:07;5.50;;;1.40;;
26484;SDS011;18083;50.560;7.262;2023-02-03T04:41:34;2.97;;;1.50;;
26484;SDS011;18083;50.560;7.262;2023-02-03T04:44:01;3.00;;;1.30;;
26484;SDS011;18083;50.560;7.262;2023-02-03T04:46:29;5.00;;;1.10;;
26484;SDS011;18083;50.560;7.262;2023-02-03T04:48:56;4.47;;;1.50;;
26484;SDS011;18083;50.560;7.262;2023-02-03T04:51:23;2.87;;;1.30;;
26484;SDS011;18083;50.560;7.262;2023-02-03T04:53:50;1.43;;;1.30;;
26484;SDS011;18083;50.560;7.262;2023-02-03T04:56:18;8.43;;;1.93;;
26484;SDS011;18083;50.560;7.262;2023-02-03T04:58:45;5.43;;;1.60;;
26484;SDS011;18083;50.560;7.262;2023-02-03T05:01:12;3.10;;;1.20;;
26484;SDS011;18083;50.560;7.262;2023-02-03T05:03:40;2.83;;;1.37;;
26484;SDS011;18083;50.560;7.262;2023-02-03T05:06:07;4.73;;;1.60;;
26484;SDS011;18083;50.560;7.262;2023-02-03T05:08:34;2.33;;;1.30;;
26484;SDS011;18083;50.560;7.262;2023-02-03T05:11:02;1.50;;;1.17;;
26484;SDS011;18083;50.560;7.262;2023-02-03T05:13:29;2.90;;;1.60;;
26484;SDS011;18083;50.560;7.262;2023-02-03T05:15:56;2.60;;;1.10;;
26484;SDS011;18083;50.560;7.262;2023-02-03T05:18:24;2.10;;;1.43;;
26484;SDS011;18083;50.560;7.262;2023-02-03T05:20:51;3.23;;;1.10;;
26484;SDS011;18083;50.560;7.262;2023-02-03T05:23:18;1.83;;;1.37;;
26484;SDS011;18083;50.560;7.262;2023-02-03T05:25:46;3.47;;;1.77;;
26484;SDS011;18083;50.560;7.262;2023-02-03T05:28:13;3.33;;;1.50;;
26484;SDS011;18083;50.560;7.262;2023-02-03T05:30:40;3.87;;;1.70;;
26484;SDS011;18083;50.560;7.262;2023-02-03T05:33:08;3.47;;;1.80;;
26484;SDS011;18083;50.560;7.262;2023-02-03T05:35:35;2.27;;;1.57;;
26484;SDS011;18083;50.560;7.262;2023-02-03T05:38:02;4.83;;;2.00;;
26484;SDS011;18083;50.560;7.262;2023-02-03T05:40:30;3.23;;;1.10;;
26484;SDS011;18083;50.560;7.262;2023-02-03T05:43:15;1.97;;;1.47;;
26484;SDS011;18083;50.560;7.262;2023-02-03T05:45:42;1.70;;;1.17;;
26484;SDS011;18083;50.560;7.262;2023-02-03T05:48:10;6.73;;;1.80;;
26484;SDS011;18083;50.560;7.262;2023-02-03T05:50:37;3.13;;;1.40;;
26484;SDS011;18083;50.560;7.262;2023-02-03T05:53:05;4.80;;;1.53;;
26484;SDS011;18083;50.560;7.262;2023-02-03T05:55:33;4.97;;;1.03;;
26484;SDS011;18083;50.560;7.262;2023-02-03T05:58:00;2.43;;;1.47;;
26484;SDS011;18083;50.560;7.262;2023-02-03T06:00:28;3.20;;;1.07;;
26484;SDS011;18083;50.560;7.262;2023-02-03T06:03:00;3.33;;;1.10;;
26484;SDS011;18083;50.560;7.262;2023-02-03T06:05:24;2.27;;;1.17;;
26484;SDS011;18083;50.560;7.262;2023-02-03T06:07:51;6.37;;;1.23;;
26484;SDS011;18083;50.560;7.262;2023-02-03T06:10:19;3.20;;;1.10;;
26484;SDS011;18083;50.560;7.262;2023-02-03T06:12:46;2.80;;;1.20;;
26484;SDS011;18083;50.560;7.262;2023-02-03T06:15:14;3.30;;;1.50;;
26484;SDS011;18083;50.560;7.262;2023-02-03T06:17:47;1.97;;;1.77;;
26484;SDS011;18083;50.560;7.262;2023-02-03T06:20:16;6.37;;;1.57;;
26484;SDS011;18083;50.560;7.262;2023-02-03T06:22:44;3.00;;;1.20;;
26484;SDS011;18083;50.560;7.262;2023-02-03T06:25:14;1.53;;;1.00;;
26484;SDS011;18083;50.560;7.262;2023-02-03T06:27:41;2.73;;;1.30;;
26484;SDS011;18083;50.560;7.262;2023-02-03T06:30:09;3.70;;;1.57;;
26484;SDS011;18083;50.560;7.262;2023-02-03T06:32:36;3.30;;;1.50;;
26484;SDS011;18083;50.560;7.262;2023-02-03T06:35:04;1.27;;;1.20;;
26484;SDS011;18083;50.560;7.262;2023-02-03T06:37:31;3.00;;;1.30;;
26484;SDS011;18083;50.560;7.262;2023-02-03T06:40:01;2.97;;;1.53;;
26484;SDS011;18083;50.560;7.262;2023-02-03T06:42:28;4.70;;;1.83;;
26484;SDS011;18083;50.560;7.262;2023-02-03T06:44:55;4.90;;;1.50;;
26484;SDS011;18083;50.560;7.262;2023-02-03T06:47:23;3.53;;;2.53;;
26484;SDS011;18083;50.560;7.262;2023-02-03T06:49:50;2.67;;;1.20;;
26484;SDS011;18083;50.560;7.262;2023-02-03T06:52:17;1.60;;;1.07;;
26484;SDS011;18083;50.560;7.262;2023-02-03T06:54:45;4.63;;;1.33;;
26484;SDS011;18083;50.560;7.262;2023-02-03T06:57:12;3.87;;;1.37;;
26484;SDS011;18083;50.560;7.262;2023-02-03T06:59:40;3.20;;;0.83;;
26484;SDS011;18083;50.560;7.262;2023-02-03T07:02:08;1.83;;;0.80;;
26484;SDS011;18083;50.560;7.262;2023-02-03T07:04:36;1.80;;;1.10;;
26484;SDS011;18083;50.560;7.262;2023-02-03T07:07:04;4.93;;;1.43;;
26484;SDS011;18083;50.560;7.262;2023-02-03T07:09:31;1.50;;;1.17;;
26484;SDS011;18083;50.560;7.262;2023-02-03T07:11:59;2.30;;;0.87;;
26484;SDS011;18083;50.560;7.262;2023-02-03T07:14:26;3.07;;;1.20;;
26484;SDS011;18083;50.560;7.262;2023-02-03T07:16:53;2.57;;;1.37;;
26484;SDS011;18083;50.560;7.262;2023-02-03T07:19:21;2.67;;;1.00;;
26484;SDS011;18083;50.560;7.262;2023-02-03T07:21:48;2.50;;;1.27;;
26484;SDS011;18083;50.560;7.262;2023-02-03T07:30:18;2.87;;;1.17;;
26484;SDS011;18083;50.560;7.262;2023-02-03T07:32:46;4.30;;;1.43;;
26484;SDS011;18083;50.560;7.262;2023-02-03T07:35:15;2.43;;;1.07;;
26484;SDS011;18083;50.560;7.262;2023-02-03T07:37:42;0.83;;;0.83;;
26484;SDS011;18083;50.560;7.262;2023-02-03T07:40:10;5.23;;;1.10;;
26484;SDS011;18083;50.560;7.262;2023-02-03T07:45:28;2.30;;;1.10;;
26484;SDS011;18083;50.560;7.262;2023-02-03T07:47:55;4.67;;;0.90;;
26484;SDS011;18083;50.560;7.262;2023-02-03T07:50:23;0.83;;;0.77;;
26484;SDS011;18083;50.560;7.262;2023-02-03T07:55:46;1.40;;;0.90;;
26484;SDS011;18083;50.560;7.262;2023-02-03T07:58:14;3.90;;;1.43;;
26484;SDS011;18083;50.560;7.262;2023-02-03T08:00:42;2.30;;;1.30;;
26484;SDS011;18083;50.560;7.262;2023-02-03T08:03:09;1.50;;;1.40;;
26484;SDS011;18083;50.560;7.262;2023-02-03T08:05:36;6.10;;;1.00;;
26484;SDS011;18083;50.560;7.262;2023-02-03T08:08:04;3.80;;;1.07;;
26484;SDS011;18083;50.560;7.262;2023-02-03T08:10:31;2.43;;;1.30;;
26484;SDS011;18083;50.560;7.262;2023-02-03T08:12:59;1.53;;;1.00;;
26484;SDS011;18083;50.560;7.262;2023-02-03T08:15:26;4.10;;;1.40;;
26484;SDS011;18083;50.560;7.262;2023-02-03T08:17:53;3.90;;;0.97;;
26484;SDS011;18083;50.560;7.262;2023-02-03T08:20:21;4.10;;;1.30;;
26484;SDS011;18083;50.560;7.262;2023-02-03T08:31:51;4.70;;;0.97;;
26484;SDS011;18083;50.560;7.262;2023-02-03T08:37:06;3.87;;;1.30;;
26484;SDS011;18083;50.560;7.262;2023-02-03T08:39:34;2.60;;;1.10;;
26484;SDS011;18083;50.560;7.262;2023-02-03T08:42:01;5.93;;;1.00;;
26484;SDS011;18083;50.560;7.262;2023-02-03T08:44:30;3.77;;;2.30;;
26484;SDS011;18083;50.560;7.262;2023-02-03T08:46:57;8.17;;;1.57;;
26484;SDS011;18083;50.560;7.262;2023-02-03T08:49:26;2.97;;;1.10;;
26484;SDS011;18083;50.560;7.262;2023-02-03T08:51:53;2.03;;;0.97;;
26484;SDS011;18083;50.560;7.262;2023-02-03T08:54:21;2.77;;;1.00;;
26484;SDS011;18083;50.560;7.262;2023-02-03T08:56:49;2.15;;;1.45;;
26484;SDS011;18083;50.560;7.262;2023-02-03T08:59:16;4.43;;;1.07;;
26484;SDS011;18083;50.560;7.262;2023-02-03T09:01:43;4.47;;;1.23;;
26484;SDS011;18083;50.560;7.262;2023-02-03T09:04:13;4.90;;;1.83;;
26484;SDS011;18083;50.560;7.262;2023-02-03T09:06:42;1.40;;;1.17;;
26484;SDS011;18083;50.560;7.262;2023-02-03T09:09:09;3.13;;;1.40;;
26484;SDS011;18083;50.560;7.262;2023-02-03T09:11:37;1.90;;;1.00;;
26484;SDS011;18083;50.560;7.262;2023-02-03T09:14:04;4.00;;;1.40;;
26484;SDS011;18083;50.560;7.262;2023-02-03T09:16:32;5.73;;;1.73;;
26484;SDS011;18083;50.560;7.262;2023-02-03T09:18:59;2.87;;;1.07;;
26484;SDS011;18083;50.560;7.262;2023-02-03T09:21:26;2.57;;;1.17;;
26484;SDS011;18083;50.560;7.262;2023-02-03T09:23:54;2.60;;;1.60;;
26484;SDS011;18083;50.560;7.262;2023-02-03T09:26:21;2.93;;;1.43;;
26484;SDS011;18083;50.560;7.262;2023-02-03T09:28:48;1.93;;;1.47;;
26484;SDS011;18083;50.560;7.262;2023-02-03T09:31:16;3.67;;;1.20;;
26484;SDS011;18083;50.560;7.262;2023-02-03T09:33:43;6.20;;;1.53;;
26484;SDS011;18083;50.560;7.262;2023-02-03T09:36:10;2.30;;;1.17;;
26484;SDS011;18083;50.560;7.262;2023-02-03T09:38:38;5.63;;;1.33;;
26484;SDS011;18083;50.560;7.262;2023-02-03T09:41:14;2.90;;;1.23;;
26484;SDS011;18083;50.560;7.262;2023-02-03T09:43:42;2.60;;;1.10;;
26484;SDS011;18083;50.560;7.262;2023-02-03T09:46:16;2.87;;;1.40;;
26484;SDS011;18083;50.560;7.262;2023-02-03T09:48:48;1.70;;;1.03;;
26484;SDS011;18083;50.560;7.262;2023-02-03T09:51:24;4.03;;;1.60;;
26484;SDS011;18083;50.560;7.262;2023-02-03T09:53:57;1.67;;;1.43;;
26484;SDS011;18083;50.560;7.262;2023-02-03T09:56:28;6.00;;;1.27;;
26484;SDS011;18083;50.560;7.262;2023-02-03T09:58:55;2.30;;;1.40;;
26484;SDS011;18083;50.560;7.262;2023-02-03T10:01:23;5.37;;;1.60;;
26484;SDS011;18083;50.560;7.262;2023-02-03T10:03:53;2.57;;;0.97;;
26484;SDS011;18083;50.560;7.262;2023-02-03T10:06:26;3.73;;;1.37;;
26484;SDS011;18083;50.560;7.262;2023-02-03T10:19:21;4.43;;;1.00;;
26484;SDS011;18083;50.560;7.262;2023-02-03T10:21:50;3.07;;;2.00;;
26484;SDS011;18083;50.560;7.262;2023-02-03T10:24:19;1.93;;;1.17;;
26484;SDS011;18083;50.560;7.262;2023-02-03T10:26:46;3.27;;;1.33;;
26484;SDS011;18083;50.560;7.262;2023-02-03T10:29:18;1.60;;;1.30;;
26484;SDS011;18083;50.560;7.262;2023-02-03T10:31:46;3.67;;;1.17;;
26484;SDS011;18083;50.560;7.262;2023-02-03T10:34:15;2.97;;;1.37;;
26484;SDS011;18083;50.560;7.262;2023-02-03T10:36:47;4.63;;;1.67;;
26484;SDS011;18083;50.560;7.262;2023-02-03T10:41:43;3.87;;;1.50;;
26484;SDS011;18083;50.560;7.262;2023-02-03T10:44:11;5.17;;;2.43;;
26484;SDS011;18083;50.560;7.262;2023-02-03T10:46:39;3.13;;;1.60;;
26484;SDS011;18083;50.560;7.262;2023-02-03T10:49:08;3.87;;;1.70;;
26484;SDS011;18083;50.560;7.262;2023-02-03T10:51:37;9.00;;;3.00;;
26484;SDS011;18083;50.560;7.262;2023-02-03T10:54:11;2.03;;;1.50;;
26484;SDS011;18083;50.560;7.262;2023-02-03T10:56:34;5.67;;;1.50;;
26484;SDS011;18083;50.560;7.262;2023-02-03T10:59:03;2.80;;;1.43;;
26484;SDS011;18083;50.560;7.262;2023-02-03T11:01:39;4.50;;;2.03;;
26484;SDS011;18083;50.560;7.262;2023-02-03T11:04:08;3.37;;;1.97;;
26484;SDS011;18083;50.560;7.262;2023-02-03T11:06:35;2.67;;;1.60;;
26484;SDS011;18083;50.560;7.262;2023-02-03T11:09:05;3.83;;;1.90;;
26484;SDS011;18083;50.560;7.262;2023-02-03T11:11:32;2.93;;;1.67;;
26484;SDS011;18083;50.560;7.262;2023-02-03T11:16:33;3.50;;;1.20;;
26484;SDS011;18083;50.560;7.262;2023-02-03T11:19:23;4.00;;;1.40;;
26484;SDS011;18083;50.560;7.262;2023-02-03T11:24:07;3.63;;;1.57;;
26484;SDS011;18083;50.560;7.262;2023-02-03T11:29:03;2.93;;;1.60;;
26484;SDS011;18083;50.560;7.262;2023-02-03T11:31:33;2.70;;;1.40;;
26484;SDS011;18083;50.560;7.262;2023-02-03T11:34:13;1.70;;;1.43;;
26484;SDS011;18083;50.560;7.262;2023-02-03T11:36:33;2.00;;;1.30;;
26484;SDS011;18083;50.560;7.262;2023-02-03T11:39:13;2.80;;;1.50;;
26484;SDS011;18083;50.560;7.262;2023-02-03T11:41:38;1.57;;;1.47;;
26484;SDS011;18083;50.560;7.262;2023-02-03T11:44:09;1.77;;;1.60;;
26484;SDS011;18083;50.560;7.262;2023-02-03T11:46:37;2.17;;;1.40;;
26484;SDS011;18083;50.560;7.262;2023-02-03T11:49:17;4.87;;;1.67;;
26484;SDS011;18083;50.560;7.262;2023-02-03T11:51:45;2.47;;;2.27;;
26484;SDS011;18083;50.560;7.262;2023-02-03T11:59:45;3.37;;;1.40;;
26484;SDS011;18083;50.560;7.262;2023-02-03T12:07:26;2.03;;;1.17;;
26484;SDS011;18083;50.560;7.262;2023-02-03T12:18:01;2.30;;;0.90;;
26484;SDS011;18083;50.560;7.262;2023-02-03T12:25:47;0.77;;;0.77;;
26484;SDS011;18083;50.560;7.262;2023-02-03T12:30:53;1.13;;;0.83;;
26484;SDS011;18083;50.560;7.262;2023-02-03T12:33:22;1.50;;;0.80;;
26484;SDS011;18083;50.560;7.262;2023-02-03T12:35:57;1.47;;;1.07;;
26484;SDS011;18083;50.560;7.262;2023-02-03T12:41:03;1.10;;;0.90;;
26484;SDS011;18083;50.560;7.262;2023-02-03T12:43:34;1.40;;;1.30;;
26484;SDS011;18083;50.560;7.262;2023-02-03T12:51:16;1.37;;;1.27;;
26484;SDS011;18083;50.560;7.262;2023-02-03T12:53:50;2.07;;;1.43;;
26484;SDS011;18083;50.560;7.262;2023-02-03T12:56:21;4.10;;;1.77;;
26484;SDS011;18083;50.560;7.262;2023-02-03T12:58:49;2.17;;;1.43;;
26484;SDS011;18083;50.560;7.262;2023-02-03T13:01:18;1.60;;;1.50;;
26484;SDS011;18083;50.560;7.262;2023-02-03T13:06:21;2.73;;;2.00;;
26484;SDS011;18083;50.560;7.262;2023-02-03T13:17:02;2.83;;;2.23;;
26484;SDS011;18083;50.560;7.262;2023-02-03T13:19:26;4.83;;;2.47;;
26484;SDS011;18083;50.560;7.262;2023-02-03T13:21:54;3.45;;;2.62;;
26484;SDS011;18083;50.560;7.262;2023-02-03T13:24:24;3.47;;;2.13;;
26484;SDS011;18083;50.560;7.262;2023-02-03T13:29:55;6.73;;;2.43;;
26484;SDS011;18083;50.560;7.262;2023-02-03T13:43:13;5.13;;;3.27;;
26484;SDS011;18083;50.560;7.262;2023-02-03T13:45:41;5.73;;;2.93;;
26484;SDS011;18083;50.560;7.262;2023-02-03T13:48:14;8.65;;;3.80;;
26484;SDS011;18083;50.560;7.262;2023-02-03T13:50:37;5.57;;;3.57;;
26484;SDS011;18083;50.560;7.262;2023-02-03T13:53:05;4.53;;;3.73;;
26484;SDS011;18083;50.560;7.262;2023-02-03T13:55:37;4.73;;;3.77;;
26484;SDS011;18083;50.560;7.262;2023-02-03T13:58:06;5.60;;;3.30;;
26484;SDS011;18083;50.560;7.262;2023-02-03T14:03:16;4.57;;;3.57;;
26484;SDS011;18083;50.560;7.262;2023-02-03T14:05:45;4.63;;;4.10;;
26484;SDS011;18083;50.560;7.262;2023-02-03T14:13:39;8.47;;;4.90;;
26484;SDS011;18083;50.560;7.262;2023-02-03T14:16:22;6.33;;;4.07;;
26484;SDS011;18083;50.560;7.262;2023-02-03T14:18:50;9.37;;;4.90;;
26484;SDS011;18083;50.560;7.262;2023-02-03T14:21:24;10.67;;;5.10;;
26484;SDS011;18083;50.560;7.262;2023-02-03T14:23:56;8.17;;;5.13;;
26484;SDS011;18083;50.560;7.262;2023-02-03T14:26:37;6.57;;;4.67;;
26484;SDS011;18083;50.560;7.262;2023-02-03T14:29:00;6.17;;;4.67;;
26484;SDS011;18083;50.560;7.262;2023-02-03T14:31:29;6.13;;;4.80;;
26484;SDS011;18083;50.560;7.262;2023-02-03T14:34:00;7.00;;;5.00;;
26484;SDS011;18083;50.560;7.262;2023-02-03T14:38:54;7.73;;;5.07;;
26484;SDS011;18083;50.560;7.262;2023-02-03T14:41:25;5.87;;;5.07;;
26484;SDS011;18083;50.560;7.262;2023-02-03T14:43:54;13.00;;;5.53;;
26484;SDS011;18083;50.560;7.262;2023-02-03T14:54:23;7.97;;;5.17;;
26484;SDS011;18083;50.560;7.262;2023-02-03T14:57:09;13.67;;;5.93;;
26484;SDS011;18083;50.560;7.262;2023-02-03T14:59:42;8.97;;;5.03;;
26484;SDS011;18083;50.560;7.262;2023-02-03T15:02:12;6.10;;;5.07;;
26484;SDS011;18083;50.560;7.262;2023-02-03T15:04:40;6.27;;;5.07;;
26484;SDS011;18083;50.560;7.262;2023-02-03T15:07:07;7.43;;;4.77;;
26484;SDS011;18083;50.560;7.262;2023-02-03T15:09:38;7.67;;;5.00;;
26484;SDS011;18083;50.560;7.262;2023-02-03T15:12:18;7.50;;;4.87;;
26484;SDS011;18083;50.560;7.262;2023-02-03T15:14:45;5.53;;;5.03;;
26484;SDS011;18083;50.560;7.262;2023-02-03T15:17:26;9.30;;;5.40;;
26484;SDS011;18083;50.560;7.262;2023-02-03T15:19:53;7.67;;;4.67;;
26484;SDS011;18083;50.560;7.262;2023-02-03T15:22:22;5.10;;;3.93;;
26484;SDS011;18083;50.560;7.262;2023-02-03T15:24:51;6.87;;;5.10;;
26484;SDS011;18083;50.560;7.262;2023-02-03T15:27:19;6.63;;;5.17;;
26484;SDS011;18083;50.560;7.262;2023-02-03T15:29:47;10.70;;;5.27;;
26484;SDS011;18083;50.560;7.262;2023-02-03T15:32:20;7.70;;;4.73;;
26484;SDS011;18083;50.560;7.262;2023-02-03T15:34:47;6.73;;;4.87;;
26484;SDS011;18083;50.560;7.262;2023-02-03T15:37:22;6.60;;;4.50;;
26484;SDS011;18083;50.560;7.262;2023-02-03T15:39:57;6.90;;;4.93;;
26484;SDS011;18083;50.560;7.262;2023-02-03T15:42:37;7.33;;;5.53;;
26484;SDS011;18083;50.560;7.262;2023-02-03T15:45:06;8.83;;;5.23;;
26484;SDS011;18083;50.560;7.262;2023-02-03T15:47:35;11.87;;;6.83;;
26484;SDS011;18083;50.560;7.262;2023-02-03T15:50:22;9.47;;;5.90;;
26484;SDS011;18083;50.560;7.262;2023-02-03T15:52:43;8.30;;;5.57;;
26484;SDS011;18083;50.560;7.262;2023-02-03T15:55:14;6.97;;;6.27;;
26484;SDS011;18083;50.560;7.262;2023-02-03T15:57:40;9.40;;;6.40;;
26484;SDS011;18083;50.560;7.262;2023-02-03T16:00:22;9.80;;;6.47;;
26484;SDS011;18083;50.560;7.262;2023-02-03T16:02:40;6.90;;;6.07;;
26484;SDS011;18083;50.560;7.262;2023-02-03T16:07:48;9.57;;;6.53;;
26484;SDS011;18083;50.560;7.262;2023-02-03T16:10:26;10.77;;;6.57;;
26484;SDS011;18083;50.560;7.262;2023-02-03T16:12:50;11.20;;;6.87;;
26484;SDS011;18083;50.560;7.262;2023-02-03T16:15:21;7.37;;;6.53;;
26484;SDS011;18083;50.560;7.262;2023-02-03T16:17:53;13.13;;;5.83;;
26484;SDS011;18083;50.560;7.262;2023-02-03T16:20:19;8.63;;;6.40;;
26484;SDS011;18083;50.560;7.262;2023-02-03T16:23:16;9.60;;;6.50;;
26484;SDS011;18083;50.560;7.262;2023-02-03T16:25:31;11.10;;;6.20;;
26484;SDS011;18083;50.560;7.262;2023-02-03T16:30:53;8.23;;;6.00;;
26484;SDS011;18083;50.560;7.262;2023-02-03T16:33:38;9.40;;;5.93;;
26484;SDS011;18083;50.560;7.262;2023-02-03T16:36:23;10.30;;;6.30;;
26484;SDS011;18083;50.560;7.262;2023-02-03T16:39:09;7.80;;;5.50;;
26484;SDS011;18083;50.560;7.262;2023-02-03T16:41:56;9.47;;;6.23;;
26484;SDS011;18083;50.560;7.262;2023-02-03T16:44:42;12.83;;;6.33;;
26484;SDS011;18083;50.560;7.262;2023-02-03T16:47:29;10.73;;;6.77;;
26484;SDS011;18083;50.560;7.262;2023-02-03T16:53:10;9.00;;;6.27;;
26484;SDS011;18083;50.560;7.262;2023-02-03T16:55:30;10.73;;;6.67;;
26484;SDS011;18083;50.560;7.262;2023-02-03T16:57:58;10.60;;;6.53;;
26484;SDS011;18083;50.560;7.262;2023-02-03T17:00:25;12.87;;;6.90;;
26484;SDS011;18083;50.560;7.262;2023-02-03T17:02:52;14.30;;;6.53;;
26484;SDS011;18083;50.560;7.262;2023-02-03T17:05:20;8.83;;;6.53;;
26484;SDS011;18083;50.560;7.262;2023-02-03T17:07:47;10.27;;;7.10;;
26484;SDS011;18083;50.560;7.262;2023-02-03T17:10:16;10.97;;;7.33;;
26484;SDS011;18083;50.560;7.262;2023-02-03T17:12:43;14.03;;;6.67;;
26484;SDS011;18083;50.560;7.262;2023-02-03T17:15:11;13.63;;;7.97;;
26484;SDS011;18083;50.560;7.262;2023-02-03T17:17:38;10.80;;;7.33;;
26484;SDS011;18083;50.560;7.262;2023-02-03T17:20:05;12.20;;;6.87;;
26484;SDS011;18083;50.560;7.262;2023-02-03T17:22:33;9.23;;;5.67;;
26484;SDS011;18083;50.560;7.262;2023-02-03T17:25:00;13.80;;;7.67;;
26484;SDS011;18083;50.560;7.262;2023-02-03T17:27:28;10.50;;;7.30;;
26484;SDS011;18083;50.560;7.262;2023-02-03T17:29:55;7.50;;;6.10;;